createdAt,value
2023-02-15T00:02:00.826Z,27.80
2023-02-15T00:07:02.663Z,27.93
2023-02-15T00:12:04.615Z,26.23
2023-02-15T00:17:06.653Z,25.37
2023-02-15T00:22:08.885Z,25.70
2023-02-15T00:27:10.722Z,25.53
2023-02-15T00:32:12.490Z,25.87
2023-02-15T00:37:16.111Z,26.87
2023-02-15T00:42:22.538Z,23.47
2023-02-15T00:47:26.207Z,23.23
2023-02-15T00:52:28.287Z,19.90
2023-02-15T00:57:31.587Z,23.37
2023-02-15T01:02:33.546Z,21.13
2023-02-15T01:07:37.775Z,21.93
2023-02-15T01:12:39.599Z,21.20
2023-02-15T01:17:42.433Z,23.00
2023-02-15T01:22:44.738Z,23.90
2023-02-15T01:27:47.042Z,25.23
2023-02-15T01:32:49.035Z,26.50
2023-02-15T01:37:50.848Z,25.73
2023-02-15T01:42:55.900Z,25.23
2023-02-15T01:48:14.913Z,23.17
2023-02-15T01:53:52.921Z,24.60
2023-02-15T01:58:58.776Z,23.20
2023-02-15T02:04:05.880Z,25.83
2023-02-15T02:09:08.523Z,22.60
2023-02-15T02:14:10.560Z,24.57
2023-02-15T02:19:27.574Z,25.27
2023-02-15T02:24:35.345Z,28.33
2023-02-15T02:30:07.624Z,26.23
2023-02-15T02:35:26.377Z,26.67
2023-02-15T02:40:56.051Z,26.17
2023-02-15T02:46:14.245Z,24.80
2023-02-15T02:51:22.238Z,23.87
2023-02-15T02:56:33.661Z,26.20
2023-02-15T03:01:42.509Z,26.63
2023-02-15T03:06:54.036Z,25.90
2023-02-15T03:11:56.542Z,23.53
2023-02-15T03:16:59.547Z,24.70
2023-02-15T03:22:10.400Z,25.63
2023-02-15T03:27:18.223Z,25.03
2023-02-15T03:32:21.927Z,23.93
2023-02-15T03:37:40.113Z,23.13
2023-02-15T03:42:44.105Z,25.73
2023-02-15T03:47:49.517Z,24.77
2023-02-15T03:52:51.478Z,25.73
2023-02-15T03:58:12.411Z,24.90
2023-02-15T04:03:32.778Z,24.97
2023-02-15T04:08:53.256Z,25.40
2023-02-15T04:13:57.583Z,23.80
2023-02-15T04:19:18.596Z,26.10
2023-02-15T04:24:39.578Z,25.67
2023-02-15T04:29:41.560Z,24.40
2023-02-15T04:34:43.346Z,24.67
2023-02-15T04:39:45.144Z,26.63
2023-02-15T04:44:46.955Z,23.90
2023-02-15T04:49:48.788Z,25.30
2023-02-15T04:54:50.743Z,22.17
2023-02-15T04:59:52.607Z,23.53
2023-02-15T05:04:54.421Z,25.67
2023-02-15T05:09:56.297Z,26.67
2023-02-15T05:14:58.117Z,25.10
2023-02-15T05:20:00.211Z,26.77
2023-02-15T05:25:20.615Z,25.47
2023-02-15T05:30:22.747Z,22.70
2023-02-15T05:35:24.588Z,27.03
2023-02-15T05:40:26.956Z,29.27
2023-02-15T05:45:29.294Z,28.53
2023-02-15T05:50:31.571Z,25.50
2023-02-15T05:55:35.449Z,24.27
2023-02-15T06:00:38.241Z,26.20
2023-02-15T06:05:40.181Z,25.03
2023-02-15T06:10:42.074Z,25.23
2023-02-15T06:15:44.124Z,25.97
2023-02-15T06:20:49.148Z,25.47
2023-02-15T06:25:51.179Z,25.63
2023-02-15T06:30:53.636Z,24.13
2023-02-15T06:35:55.568Z,23.70
2023-02-15T06:40:57.616Z,26.07
2023-02-15T06:46:00.164Z,25.67
2023-02-15T06:51:02.287Z,23.53
2023-02-15T06:56:07.486Z,21.40
2023-02-15T07:01:10.395Z,25.83
2023-02-15T07:06:12.420Z,26.70
2023-02-15T07:11:32.892Z,29.00
2023-02-15T07:16:34.783Z,27.10
2023-02-15T07:21:37.321Z,27.47
2023-02-15T07:26:39.160Z,30.47
2023-02-15T07:31:41.157Z,30.57
2023-02-15T07:36:45.267Z,32.63
2023-02-15T07:41:47.300Z,33.07
2023-02-15T07:46:49.250Z,32.80
2023-02-15T07:51:51.173Z,29.87
2023-02-15T07:56:53.038Z,30.00
2023-02-15T08:01:57.257Z,30.03
2023-02-15T08:06:59.229Z,32.43
2023-02-15T08:12:01.024Z,28.80
2023-02-15T08:17:05.888Z,29.70
2023-02-15T08:22:11.145Z,29.77
2023-02-15T08:27:12.991Z,30.70
2023-02-15T08:32:14.987Z,32.90
2023-02-15T08:37:16.832Z,30.47
2023-02-15T08:42:18.780Z,31.70
2023-02-15T08:47:20.770Z,34.73
2023-02-15T08:52:22.747Z,38.60
2023-02-15T08:57:25.212Z,38.53
2023-02-15T09:02:27.409Z,35.10
2023-02-15T09:07:30.435Z,32.23
2023-02-15T09:12:32.222Z,28.97
2023-02-15T09:17:34.145Z,26.07
2023-02-15T09:22:35.931Z,25.17
2023-02-15T09:27:37.784Z,23.13
2023-02-15T09:32:39.855Z,20.47
2023-02-15T09:37:41.834Z,21.90
2023-02-15T09:42:50.033Z,20.83
2023-02-15T09:47:58.775Z,17.40
2023-02-15T09:53:19.320Z,17.50
2023-02-15T09:58:40.857Z,17.43
2023-02-15T10:04:12.177Z,17.30
2023-02-15T10:09:50.020Z,16.10
2023-02-15T10:15:07.994Z,16.57
2023-02-15T10:20:28.938Z,16.97
2023-02-15T10:25:46.048Z,17.80
2023-02-15T10:30:57.113Z,16.57
2023-02-15T10:36:36.244Z,15.67
2023-02-15T10:41:47.906Z,15.83
2023-02-15T10:47:21.404Z,17.42
2023-02-15T10:52:45.331Z,16.17
2023-02-15T10:57:54.033Z,17.92
2023-02-15T11:03:23.397Z,19.05
2023-02-15T11:08:27.518Z,18.23
2023-02-15T11:13:35.127Z,16.88
2023-02-15T11:18:41.185Z,18.20
2023-02-15T11:23:45.877Z,19.33
2023-02-15T11:28:57.992Z,17.52
2023-02-15T11:34:04.990Z,20.50
2023-02-15T11:39:12.875Z,21.42
2023-02-15T11:44:24.126Z,19.25
2023-02-15T11:49:31.559Z,20.40
2023-02-15T11:54:40.612Z,19.15
2023-02-15T11:59:50.684Z,20.20
2023-02-15T12:04:57.674Z,21.30
2023-02-15T12:10:21.050Z,20.25
2023-02-15T12:15:32.415Z,19.95
2023-02-15T12:20:37.025Z,20.42
2023-02-15T12:25:43.331Z,20.65
2023-02-15T12:30:45.378Z,18.55
2023-02-15T12:35:50.741Z,21.30
2023-02-15T12:41:26.635Z,20.80
2023-02-15T12:46:29.083Z,22.17
2023-02-15T12:51:31.528Z,20.88
2023-02-15T12:56:33.508Z,21.08
2023-02-15T13:01:35.359Z,20.30
2023-02-15T13:06:37.780Z,20.27
2023-02-15T13:11:42.170Z,18.70
2023-02-15T13:16:46.993Z,19.70
2023-02-15T13:21:52.467Z,21.13
2023-02-15T13:27:14.036Z,21.23
2023-02-15T13:32:19.958Z,20.20
2023-02-15T13:37:34.288Z,20.42
2023-02-15T13:42:41.504Z,19.58
2023-02-15T13:47:49.759Z,20.25
2023-02-15T13:53:18.888Z,21.40
2023-02-15T13:58:27.032Z,21.33
2023-02-15T14:03:49.647Z,22.85
2023-02-15T14:08:54.681Z,22.25
2023-02-15T14:14:14.116Z,23.08
2023-02-15T14:19:36.444Z,21.48
2023-02-15T14:24:45.438Z,22.95
2023-02-15T14:30:28.092Z,21.48
2023-02-15T14:35:31.310Z,25.67
2023-02-15T14:41:02.174Z,23.98
2023-02-15T14:46:20.178Z,23.33
2023-02-15T14:51:46.871Z,24.45
2023-02-15T14:57:09.369Z,28.00
2023-02-15T15:02:16.576Z,24.35
2023-02-15T15:07:27.587Z,25.17
2023-02-15T15:12:36.543Z,25.10
2023-02-15T15:17:39.461Z,23.43
2023-02-15T15:22:43.515Z,24.43
2023-02-15T15:27:51.624Z,24.83
2023-02-15T15:33:00.211Z,24.67
2023-02-15T15:38:20.691Z,24.43
2023-02-15T15:43:48.546Z,25.58
2023-02-15T15:48:50.412Z,26.73
2023-02-15T15:53:54.265Z,27.53
2023-02-15T15:59:03.286Z,27.83
2023-02-15T16:04:05.225Z,25.50
2023-02-15T16:09:18.507Z,25.87
2023-02-15T16:14:30.420Z,24.97
2023-02-15T16:19:37.155Z,25.87
2023-02-15T16:24:54.289Z,24.07
2023-02-15T16:29:56.338Z,24.47
2023-02-15T16:35:00.703Z,25.53
2023-02-15T16:40:02.900Z,25.47
2023-02-15T16:45:14.875Z,27.77
2023-02-15T16:50:38.983Z,22.90
2023-02-15T16:55:43.309Z,25.17
2023-02-15T17:00:45.891Z,24.10
2023-02-15T17:06:01.917Z,23.37
2023-02-15T17:11:19.416Z,23.23
2023-02-15T17:16:28.130Z,23.37
2023-02-15T17:21:38.355Z,24.43
2023-02-15T17:26:40.331Z,25.20
2023-02-15T17:31:49.837Z,24.90
2023-02-15T17:37:03.331Z,24.23
2023-02-15T17:42:05.205Z,24.90
2023-02-15T17:47:07.376Z,25.57
2023-02-15T17:52:14.808Z,27.10
2023-02-15T17:57:16.973Z,27.00
2023-02-15T18:02:37.601Z,25.60
2023-02-15T18:07:57.892Z,27.07
2023-02-15T18:12:59.876Z,26.00
2023-02-15T18:18:02.515Z,26.73
2023-02-15T18:23:04.326Z,25.17
2023-02-15T18:28:10.332Z,25.37
2023-02-15T18:33:36.378Z,25.53
2023-02-15T18:38:38.356Z,28.43
2023-02-15T18:43:40.281Z,26.03
2023-02-15T18:48:42.558Z,27.43
2023-02-15T18:53:45.441Z,26.30
2023-02-15T18:58:47.818Z,27.23
2023-02-15T19:03:51.586Z,27.00
2023-02-15T19:08:54.230Z,28.37
2023-02-15T19:13:56.194Z,25.37
2023-02-15T19:18:59.094Z,25.30
2023-02-15T19:24:06.654Z,25.87
2023-02-15T19:29:13.023Z,25.60
2023-02-15T19:34:18.184Z,27.50
2023-02-15T19:39:26.235Z,27.03
2023-02-15T19:44:28.470Z,26.93
2023-02-15T19:49:30.527Z,26.20
2023-02-15T19:54:35.712Z,27.17
2023-02-15T19:59:37.951Z,24.97
2023-02-15T20:04:40.557Z,24.43
2023-02-15T20:09:43.487Z,24.40
2023-02-15T20:14:45.502Z,23.43
2023-02-15T20:19:48.093Z,24.63
2023-02-15T20:24:50.644Z,24.23
2023-02-15T20:29:55.760Z,22.80
2023-02-15T20:34:57.893Z,22.40
2023-02-15T20:40:00.036Z,23.37
2023-02-15T20:45:03.120Z,24.90
2023-02-15T20:50:05.607Z,25.77
2023-02-15T20:55:21.543Z,23.60
2023-02-15T21:00:27.302Z,25.00
2023-02-15T21:05:33.536Z,23.00
2023-02-15T21:10:35.498Z,24.10
2023-02-15T21:15:41.629Z,23.80
2023-02-15T21:20:46.828Z,24.50
2023-02-15T21:25:49.233Z,23.93
2023-02-15T21:30:52.625Z,25.87
2023-02-15T21:35:57.642Z,23.97
2023-02-15T21:41:19.666Z,23.23
2023-02-15T21:46:40.419Z,24.37
2023-02-15T21:52:00.814Z,24.47
2023-02-15T21:57:03.624Z,23.57
2023-02-15T22:02:34.907Z,22.50
2023-02-15T22:07:36.878Z,23.77
2023-02-15T22:12:40.272Z,23.67
2023-02-15T22:17:42.062Z,23.33
2023-02-15T22:22:43.897Z,23.90
2023-02-15T22:27:46.870Z,23.63
2023-02-15T22:32:49.247Z,23.83
2023-02-15T22:37:51.076Z,23.10
2023-02-15T22:42:54.726Z,23.27
2023-02-15T22:47:59.545Z,24.57
2023-02-15T22:53:02.847Z,23.30
2023-02-15T22:58:05.409Z,22.93
2023-02-15T23:03:19.303Z,23.40
2023-02-15T23:08:21.314Z,22.10
2023-02-15T23:13:31.098Z,24.30
2023-02-15T23:18:37.206Z,24.73
2023-02-15T23:23:41.525Z,21.77
2023-02-15T23:28:44.100Z,23.30
2023-02-15T23:33:46.857Z,24.47
2023-02-15T23:38:48.985Z,24.00
2023-02-15T23:44:00.507Z,24.77
2023-02-15T23:49:14.673Z,22.93
2023-02-15T23:54:18.974Z,23.70
2023-02-15T23:59:25.210Z,24.93
